Time;durP1;ratioP1;P1;durP2;ratioP2;P2;SDS_P1;SDS_P2;PMS_P1;PMS_P2;Temp;Humidity;BMP_temperature;BMP_pressure;BME280_temperature;BME280_humidity;BME280_pressure;Samples;Min_cycle;Max_cycle;Signal;HPM_P1;HPM_P2
2023/03/01 00:01:27;;;;;;;10.30;5.30;;;2.60;44.60;;;;;;2324119;54;21725;-71
2023/03/01 00:03:53;;;;;;;9.65;5.50;;;2.60;44.70;;;;;;2326060;54;20942;-69
2023/03/01 00:06:20;;;;;;;9.80;4.97;;;2.50;44.60;;;;;;2322818;54;20981;-68
2023/03/01 00:08:46;;;;;;;7.53;4.15;;;2.50;44.60;;;;;;2324108;54;20961;-72
2023/03/01 00:11:25;;;;;;;8.55;4.20;;;2.50;44.70;;;;;;2324415;54;21032;-73
2023/03/01 00:13:54;;;;;;;8.20;4.12;;;2.50;44.90;;;;;;2324898;54;21016;-72
2023/03/01 00:16:26;;;;;;;9.48;4.53;;;2.40;44.80;;;;;;2324604;54;21008;-70
2023/03/01 00:18:57;;;;;;;8.35;4.00;;;2.40;44.80;;;;;;2324889;54;20972;-70
2023/03/01 00:21:23;;;;;;;8.45;4.40;;;2.40;44.80;;;;;;2323659;54;20982;-74
2023/03/01 00:23:50;;;;;;;8.57;3.83;;;2.40;44.80;;;;;;2331333;54;21449;-71
2023/03/01 00:26:17;;;;;;;9.30;4.25;;;2.30;44.80;;;;;;2421080;53;21973;-71
2023/03/01 00:28:46;;;;;;;11.15;4.62;;;2.30;44.80;;;;;;2329455;53;21402;-71
2023/03/01 00:31:19;;;;;;;9.13;3.95;;;2.30;44.80;;;;;;2378910;53;20945;-74
2023/03/01 00:33:47;;;;;;;9.48;3.60;;;2.30;44.90;;;;;;2324499;54;21052;-73
2023/03/01 00:36:14;;;;;;;9.43;4.72;;;2.30;45.40;;;;;;2325439;54;20907;-69
2023/03/01 00:38:44;;;;;;;6.25;3.37;;;2.20;44.80;;;;;;2323548;54;20980;-69
2023/03/01 00:41:13;;;;;;;7.70;4.00;;;2.20;44.80;;;;;;2385620;53;20957;-72
2023/03/01 00:43:40;;;;;;;9.68;4.57;;;2.20;44.90;;;;;;2324964;54;21008;-73
2023/03/01 00:46:17;;;;;;;6.90;4.00;;;2.20;44.90;;;;;;2324437;53;21052;-70
2023/03/01 00:48:44;;;;;;;8.30;4.07;;;2.10;44.90;;;;;;2324641;54;21083;-74
2023/03/01 00:51:20;;;;;;;7.62;4.03;;;2.10;44.90;;;;;;2324734;54;20979;-70
2023/03/01 00:53:47;;;;;;;8.98;4.45;;;2.10;44.90;;;;;;2324233;54;21056;-73
2023/03/01 00:56:13;;;;;;;9.80;5.55;;;2.00;44.80;;;;;;2324953;54;20944;-70
2023/03/01 00:58:40;;;;;;;9.82;5.10;;;2.00;44.80;;;;;;2526297;53;20992;-74
2023/03/01 01:01:16;;;;;;;12.45;5.95;;;2.00;44.90;;;;;;2389483;53;20933;-68
2023/03/01 01:03:50;;;;;;;9.60;4.82;;;2.00;44.90;;;;;;2324703;54;20956;-73
2023/03/01 01:06:17;;;;;;;8.23;4.30;;;2.00;45.10;;;;;;2324975;54;20948;-72
2023/03/01 01:08:44;;;;;;;9.60;4.80;;;1.90;45.00;;;;;;2324328;54;21827;-73
2023/03/01 01:11:10;;;;;;;11.80;5.57;;;1.90;45.00;;;;;;2324906;54;21191;-72
2023/03/01 01:13:38;;;;;;;11.25;6.15;;;1.90;45.00;;;;;;2323358;54;21225;-72
2023/03/01 01:16:04;;;;;;;11.55;6.03;;;1.90;45.10;;;;;;2325321;54;20968;-72
2023/03/01 01:18:31;;;;;;;11.57;6.05;;;1.80;45.10;;;;;;2324433;54;21095;-71
2023/03/01 01:20:57;;;;;;;12.23;5.90;;;1.80;45.10;;;;;;2444947;53;21946;-76
2023/03/01 01:23:24;;;;;;;9.05;4.82;;;1.80;45.10;;;;;;2336708;53;21051;-74
2023/03/01 01:25:50;;;;;;;7.62;4.40;;;1.80;45.10;;;;;;2320351;54;20967;-73
2023/03/01 01:28:17;;;;;;;9.10;4.82;;;1.80;45.20;;;;;;2324256;54;21388;-71
2023/03/01 01:30:43;;;;;;;10.68;5.45;;;1.80;45.20;;;;;;2325172;54;20940;-71
2023/03/01 01:33:10;;;;;;;9.45;5.10;;;1.70;45.10;;;;;;2474719;53;21822;-72
2023/03/01 01:35:38;;;;;;;8.20;4.55;;;1.70;45.10;;;;;;2324775;54;21035;-75
2023/03/01 01:38:06;;;;;;;10.18;4.28;;;1.70;45.20;;;;;;2512137;53;20977;-72
2023/03/01 01:40:32;;;;;;;9.13;4.57;;;1.70;45.20;;;;;;2323965;53;21893;-73
2023/03/01 01:42:59;;;;;;;9.18;4.55;;;1.70;45.20;;;;;;2325466;55;21070;-73
2023/03/01 01:45:33;;;;;;;8.15;4.47;;;1.60;45.20;;;;;;2301278;54;21463;-71
2023/03/01 01:48:04;;;;;;;10.32;5.32;;;1.60;45.30;;;;;;2324528;54;20960;-71
2023/03/01 01:50:37;;;;;;;10.52;4.85;;;1.60;45.30;;;;;;2325420;54;21400;-69
2023/03/01 01:53:16;;;;;;;11.63;5.43;;;1.60;45.40;;;;;;2424700;53;20968;-75
2023/03/01 01:55:45;;;;;;;8.77;4.50;;;1.60;45.50;;;;;;2324212;53;21969;-73
2023/03/01 01:58:13;;;;;;;8.40;4.25;;;1.60;45.40;;;;;;2326377;54;20929;-71
2023/03/01 02:00:39;;;;;;;11.88;5.57;;;1.50;45.30;;;;;;2323134;53;20929;-73
2023/03/01 02:03:17;;;;;;;9.25;5.03;;;1.50;45.30;;;;;;2423264;53;21083;-70
2023/03/01 02:09:19;;;;;;;11.85;5.05;;;1.50;45.40;;;;;;2324820;54;21000;-68
2023/03/01 02:11:46;;;;;;;9.63;5.18;;;1.50;45.60;;;;;;2324853;54;21000;-72
2023/03/01 02:14:12;;;;;;;15.10;5.32;;;1.50;45.30;;;;;;2385526;53;20924;-74
2023/03/01 02:16:39;;;;;;;10.95;5.28;;;1.40;45.40;;;;;;2568093;53;20952;-72
2023/03/01 02:19:05;;;;;;;12.00;6.03;;;1.40;45.50;;;;;;2324790;54;21067;-71
2023/03/01 02:21:45;;;;;;;12.48;5.95;;;1.40;45.60;;;;;;2567880;53;21358;-68
2023/03/01 02:25:47;;;;;;;12.37;5.10;;;1.40;45.80;;;;;;2568699;53;21037;-71
2023/03/01 02:28:36;;;;;;;12.30;5.37;;;1.40;45.80;;;;;;2334566;53;20979;-72
2023/03/01 02:33:49;;;;;;;11.43;5.60;;;1.40;45.70;;;;;;2463995;53;21013;-73
2023/03/01 02:36:21;;;;;;;11.98;5.50;;;1.40;45.70;;;;;;2324570;54;21298;-71
2023/03/01 02:38:48;;;;;;;12.75;6.00;;;1.40;45.80;;;;;;2478147;53;20919;-72
2023/03/01 02:41:15;;;;;;;12.50;5.62;;;1.40;45.90;;;;;;2323447;54;20983;-69
2023/03/01 02:43:42;;;;;;;13.00;6.80;;;1.40;46.00;;;;;;2327313;54;20917;-73
2023/03/01 02:46:14;;;;;;;11.27;6.45;;;1.40;46.00;;;;;;2320211;54;20938;-69
2023/03/01 02:48:48;;;;;;;11.38;5.95;;;1.40;46.20;;;;;;2323463;54;21008;-74
2023/03/01 02:51:41;;;;;;;9.20;5.15;;;1.40;46.20;;;;;;2323259;54;20953;-69
2023/03/01 02:55:29;;;;;;;12.82;6.57;;;1.40;46.30;;;;;;2323971;54;20941;-69
2023/03/01 02:57:56;;;;;;;11.02;5.75;;;1.50;46.60;;;;;;2323829;54;21507;-72
2023/03/01 03:00:27;;;;;;;15.88;6.72;;;1.40;46.20;;;;;;2326563;53;21512;-72
2023/03/01 03:02:56;;;;;;;12.55;6.10;;;1.50;46.30;;;;;;2324215;54;20936;-72
2023/03/01 03:05:27;;;;;;;13.57;7.12;;;1.50;46.30;;;;;;2323768;54;20932;-71
2023/03/01 03:07:55;;;;;;;13.73;6.97;;;1.50;46.30;;;;;;2327888;54;21918;-73
2023/03/01 03:10:27;;;;;;;14.98;7.55;;;1.50;46.30;;;;;;2315230;54;21483;-73
2023/03/01 03:12:56;;;;;;;12.35;6.97;;;1.50;46.30;;;;;;2323955;54;21985;-71
2023/03/01 03:15:23;;;;;;;14.48;7.90;;;1.50;46.30;;;;;;2323465;54;20992;-70
2023/03/01 03:17:49;;;;;;;18.08;7.95;;;1.50;46.40;;;;;;2323721;54;20940;-75
2023/03/01 03:20:18;;;;;;;16.62;8.60;;;1.50;46.40;;;;;;2382578;53;21043;-74
2023/03/01 03:22:49;;;;;;;15.05;7.90;;;1.50;46.40;;;;;;2322300;54;20913;-69
2023/03/01 03:25:19;;;;;;;15.75;7.57;;;1.50;46.40;;;;;;2323089;54;21071;-70
2023/03/01 03:27:46;;;;;;;13.45;7.60;;;1.60;46.60;;;;;;2323628;54;21772;-72
2023/03/01 03:30:19;;;;;;;11.45;6.18;;;1.60;46.60;;;;;;2334566;53;21022;-71
2023/03/01 03:32:52;;;;;;;12.60;6.45;;;1.60;46.60;;;;;;2323180;53;21039;-75
2023/03/01 03:35:38;;;;;;;14.00;6.62;;;1.60;46.60;;;;;;2324819;54;20919;-74
2023/03/01 03:38:06;;;;;;;12.27;5.87;;;1.60;47.20;;;;;;2324425;54;20928;-72
2023/03/01 03:40:37;;;;;;;11.23;5.65;;;1.60;46.60;;;;;;2405455;53;20954;-72
2023/03/01 03:43:04;;;;;;;10.80;5.47;;;1.60;46.50;;;;;;2325517;54;20984;-73
2023/03/01 03:45:33;;;;;;;12.77;6.12;;;1.60;47.00;;;;;;2324503;54;20940;-70
2023/03/01 03:47:59;;;;;;;11.12;5.40;;;1.60;46.40;;;;;;2323281;54;20941;-75
2023/03/01 03:50:26;;;;;;;11.05;5.10;;;1.60;46.40;;;;;;2475600;53;20909;-70
2023/03/01 03:52:52;;;;;;;12.70;7.10;;;1.60;46.30;;;;;;2325262;54;22076;-73
2023/03/01 03:55:19;;;;;;;13.23;6.90;;;1.60;46.30;;;;;;2429085;53;20948;-70
2023/03/01 03:57:53;;;;;;;11.85;6.55;;;1.60;46.30;;;;;;2324962;54;20929;-73
2023/03/01 04:00:20;;;;;;;15.18;7.03;;;1.60;46.40;;;;;;2324206;54;20964;-70
2023/03/01 04:02:47;;;;;;;10.55;5.68;;;1.50;46.30;;;;;;2324546;54;20976;-75
2023/03/01 04:05:14;;;;;;;11.75;6.40;;;1.50;46.30;;;;;;2324644;54;20968;-69
2023/03/01 04:07:40;;;;;;;13.45;5.57;;;1.50;46.30;;;;;;2324080;54;20955;-70
2023/03/01 04:10:12;;;;;;;11.73;6.07;;;1.50;46.30;;;;;;2324841;54;20973;-71
2023/03/01 04:12:39;;;;;;;12.23;5.87;;;1.50;46.30;;;;;;2479453;53;20935;-73
2023/03/01 04:15:12;;;;;;;12.02;5.82;;;1.40;46.30;;;;;;2324456;54;20949;-72
2023/03/01 04:17:44;;;;;;;13.10;6.18;;;1.40;46.30;;;;;;2325037;54;21456;-73
2023/03/01 04:20:11;;;;;;;10.63;5.47;;;1.40;46.40;;;;;;2324806;54;21886;-73
2023/03/01 04:22:39;;;;;;;10.30;5.47;;;1.40;46.30;;;;;;2324000;54;20988;-72
2023/03/01 04:25:06;;;;;;;9.68;5.40;;;1.40;46.40;;;;;;2320241;54;20972;-74
2023/03/01 04:27:35;;;;;;;10.38;5.18;;;1.40;46.40;;;;;;2319627;54;20983;-71
2023/03/01 04:30:03;;;;;;;10.23;5.12;;;1.30;46.30;;;;;;2319912;54;20967;-71
2023/03/01 04:32:29;;;;;;;15.30;6.22;;;1.30;46.30;;;;;;2318946;54;20948;-71
2023/03/01 04:34:55;;;;;;;10.88;5.50;;;1.30;46.30;;;;;;2426943;53;20992;-70
2023/03/01 04:37:23;;;;;;;10.18;5.50;;;1.30;46.40;;;;;;2319825;54;21065;-72
2023/03/01 04:39:50;;;;;;;12.68;6.47;;;1.30;46.50;;;;;;2327667;53;20980;-72
2023/03/01 04:42:16;;;;;;;11.93;6.22;;;1.30;46.50;;;;;;2319955;53;21000;-75
2023/03/01 04:44:43;;;;;;;12.95;6.03;;;1.30;46.60;;;;;;2322590;54;20960;-77
2023/03/01 04:47:09;;;;;;;12.52;6.60;;;1.30;46.70;;;;;;2317219;54;21048;-70
2023/03/01 04:49:36;;;;;;;11.40;6.22;;;1.30;46.70;;;;;;2319191;54;20929;-70
2023/03/01 04:52:03;;;;;;;11.52;6.10;;;1.30;46.80;;;;;;2453189;53;21347;-76
2023/03/01 04:54:32;;;;;;;11.12;5.93;;;1.30;47.00;;;;;;2316562;53;21520;-75
2023/03/01 04:56:59;;;;;;;11.10;5.53;;;1.30;46.90;;;;;;2317640;53;22269;-68
2023/03/01 04:59:25;;;;;;;11.20;5.57;;;1.40;47.10;;;;;;2316390;53;21563;-71
2023/03/01 05:01:52;;;;;;;11.88;5.55;;;1.40;47.10;;;;;;2526588;53;20920;-71
2023/03/01 05:04:18;;;;;;;12.30;6.20;;;1.40;47.10;;;;;;2380974;53;20944;-68
2023/03/01 05:06:44;;;;;;;10.75;5.87;;;1.40;47.10;;;;;;2470966;53;21044;-71
2023/03/01 05:09:11;;;;;;;11.50;5.87;;;1.40;47.10;;;;;;2316684;53;20980;-70
2023/03/01 05:11:38;;;;;;;15.23;7.12;;;1.50;47.20;;;;;;2316621;54;20940;-74
2023/03/01 05:14:07;;;;;;;13.73;7.18;;;1.50;47.20;;;;;;2317203;54;20908;-70
2023/03/01 05:16:35;;;;;;;11.98;6.97;;;1.50;47.30;;;;;;2316073;54;20976;-71
2023/03/01 05:19:11;;;;;;;12.23;6.43;;;1.50;47.30;;;;;;2316754;54;20921;-72
2023/03/01 05:22:01;;;;;;;14.15;6.20;;;1.60;47.40;;;;;;2316306;54;20913;-72
2023/03/01 05:24:27;;;;;;;12.27;6.37;;;1.60;47.40;;;;;;2317983;54;21032;-69
2023/03/01 05:26:54;;;;;;;13.20;6.78;;;1.60;47.30;;;;;;2475243;53;21540;-71
2023/03/01 05:29:24;;;;;;;10.60;5.70;;;1.70;47.40;;;;;;2316229;54;20988;-71
2023/03/01 05:35:32;;;;;;;13.70;7.28;;;1.80;47.70;;;;;;2315004;54;21259;-75
2023/03/01 05:37:58;;;;;;;11.82;6.10;;;1.80;47.50;;;;;;2316674;54;20947;-70
2023/03/01 05:40:25;;;;;;;15.40;8.23;;;1.80;47.50;;;;;;2313630;54;20967;-72
2023/03/01 05:42:55;;;;;;;13.77;6.90;;;1.80;47.40;;;;;;2318545;54;21130;-72
2023/03/01 05:45:22;;;;;;;11.57;5.57;;;1.90;47.60;;;;;;2312692;54;20924;-70
2023/03/01 05:47:49;;;;;;;9.43;5.22;;;1.90;47.60;;;;;;2334764;53;20956;-71
2023/03/01 05:50:26;;;;;;;13.62;7.22;;;2.00;47.70;;;;;;2316735;53;20956;-69
2023/03/01 05:53:19;;;;;;;12.25;6.70;;;2.00;47.70;;;;;;2317482;53;21088;-70
2023/03/01 05:55:47;;;;;;;12.70;7.53;;;2.00;47.80;;;;;;2315178;53;21227;-69
2023/03/01 05:58:17;;;;;;;14.10;7.40;;;2.10;47.70;;;;;;2322086;53;21456;-70
2023/03/01 06:00:44;;;;;;;11.32;6.25;;;2.10;47.80;;;;;;2313565;54;21059;-69
2023/03/01 06:03:11;;;;;;;11.43;6.03;;;2.20;47.70;;;;;;2556461;53;21333;-73
2023/03/01 06:05:38;;;;;;;14.05;7.40;;;2.20;47.70;;;;;;2313732;54;21477;-73
2023/03/01 06:08:04;;;;;;;11.70;7.32;;;2.20;47.70;;;;;;2314084;54;20941;-72
2023/03/01 06:10:31;;;;;;;10.88;6.03;;;2.20;47.70;;;;;;2313532;54;21513;-70
2023/03/01 06:12:57;;;;;;;12.55;5.85;;;2.30;47.70;;;;;;2372592;53;21478;-74
2023/03/01 06:15:24;;;;;;;13.02;6.87;;;2.30;47.70;;;;;;2320037;53;21028;-73
2023/03/01 06:17:50;;;;;;;16.62;7.07;;;2.30;47.60;;;;;;2314300;54;21419;-72
2023/03/01 06:20:28;;;;;;;13.18;7.22;;;2.40;47.60;;;;;;2313744;54;21588;-72
2023/03/01 06:22:55;;;;;;;12.82;6.60;;;2.40;47.70;;;;;;2314462;54;20941;-69
2023/03/01 06:25:22;;;;;;;12.07;6.75;;;2.40;47.60;;;;;;2433148;53;21357;-73
2023/03/01 06:27:48;;;;;;;15.65;7.37;;;2.40;47.60;;;;;;2380934;53;21378;-71
2023/03/01 06:30:16;;;;;;;11.52;6.43;;;2.40;47.50;;;;;;2343501;53;20956;-71
2023/03/01 06:32:42;;;;;;;14.35;7.10;;;2.40;47.60;;;;;;2313573;54;21355;-72
2023/03/01 06:35:13;;;;;;;13.38;7.12;;;2.40;47.60;;;;;;2353506;53;21043;-72
2023/03/01 06:37:39;;;;;;;14.32;6.78;;;2.40;47.60;;;;;;2334543;53;21412;-71
2023/03/01 06:40:07;;;;;;;13.82;7.35;;;2.50;47.60;;;;;;2314006;54;21553;-74
2023/03/01 06:42:35;;;;;;;16.30;7.25;;;2.40;47.60;;;;;;2313834;54;21363;-70
2023/03/01 06:45:01;;;;;;;13.62;6.62;;;2.40;47.60;;;;;;2317674;53;21516;-73
2023/03/01 06:47:28;;;;;;;11.82;6.78;;;2.40;47.60;;;;;;2312895;54;21708;-75
2023/03/01 06:49:54;;;;;;;11.52;6.35;;;2.50;47.70;;;;;;2372488;53;21376;-72
2023/03/01 06:52:21;;;;;;;15.00;7.40;;;2.50;47.70;;;;;;2313654;54;20992;-69
2023/03/01 06:54:53;;;;;;;13.68;7.35;;;2.50;47.70;;;;;;2485162;53;20941;-74
2023/03/01 06:57:19;;;;;;;12.33;6.97;;;2.50;47.70;;;;;;2314218;54;21451;-72
2023/03/01 06:59:46;;;;;;;14.43;7.40;;;2.50;47.70;;;;;;2555945;53;21419;-71
2023/03/01 07:02:13;;;;;;;14.35;7.78;;;2.50;47.70;;;;;;2313811;54;21068;-71
2023/03/01 07:04:39;;;;;;;15.90;8.13;;;2.50;47.70;;;;;;2313332;54;21469;-69
2023/03/01 07:07:05;;;;;;;15.75;7.57;;;2.50;47.70;;;;;;2314543;54;20976;-74
2023/03/01 07:09:32;;;;;;;12.85;7.22;;;2.50;47.70;;;;;;2419499;53;21446;-75
2023/03/01 07:11:58;;;;;;;14.75;7.25;;;2.50;47.70;;;;;;2314199;54;21449;-74
2023/03/01 07:14:25;;;;;;;12.48;6.87;;;2.60;47.90;;;;;;2333760;53;21906;-71
2023/03/01 07:16:52;;;;;;;15.90;8.00;;;2.50;47.80;;;;;;2310966;54;21486;-70
2023/03/01 07:19:18;;;;;;;17.92;8.00;;;2.60;47.90;;;;;;2356618;53;21934;-72
2023/03/01 07:21:45;;;;;;;15.40;7.82;;;2.60;47.90;;;;;;2313246;54;21024;-72
2023/03/01 07:24:11;;;;;;;13.15;6.97;;;2.60;48.00;;;;;;2313447;54;20956;-68
2023/03/01 07:26:37;;;;;;;14.15;7.28;;;2.60;48.00;;;;;;2313335;54;20948;-70
2023/03/01 07:29:04;;;;;;;13.73;7.50;;;2.60;48.00;;;;;;2313577;54;21004;-70
2023/03/01 07:31:31;;;;;;;15.05;8.02;;;2.60;48.00;;;;;;2312810;54;21612;-73
2023/03/01 07:33:57;;;;;;;14.95;7.87;;;2.70;48.10;;;;;;2313744;54;21372;-71
2023/03/01 07:36:23;;;;;;;16.83;8.30;;;2.70;48.10;;;;;;2313594;54;20972;-73
2023/03/01 07:38:50;;;;;;;14.63;7.68;;;2.70;48.10;;;;;;2315391;53;21012;-71
2023/03/01 07:41:16;;;;;;;16.15;7.55;;;2.70;48.10;;;;;;2313458;54;21461;-72
2023/03/01 07:43:42;;;;;;;14.85;8.35;;;2.80;48.20;;;;;;2314255;54;21435;-74
2023/03/01 07:46:08;;;;;;;16.45;8.85;;;2.80;48.20;;;;;;2361533;53;20937;-72
2023/03/01 07:48:35;;;;;;;17.65;7.62;;;2.80;48.10;;;;;;2316487;53;20975;-72
2023/03/01 07:51:02;;;;;;;16.12;8.77;;;2.80;48.10;;;;;;2313513;53;21036;-71
2023/03/01 07:53:28;;;;;;;13.32;7.28;;;2.80;48.10;;;;;;2430059;53;21210;-71
2023/03/01 07:56:07;;;;;;;17.52;7.80;;;2.80;48.10;;;;;;2314070;54;20951;-73
2023/03/01 07:58:35;;;;;;;15.90;8.18;;;2.90;48.30;;;;;;2316048;53;21050;-72
2023/03/01 08:01:02;;;;;;;14.32;7.53;;;2.90;48.20;;;;;;2309607;54;20969;-72
2023/03/01 08:03:29;;;;;;;16.20;8.15;;;2.90;48.30;;;;;;2480436;53;21027;-75
2023/03/01 08:05:55;;;;;;;15.93;8.32;;;2.90;48.20;;;;;;2379883;53;20984;-71
2023/03/01 08:08:21;;;;;;;16.60;8.80;;;2.90;48.20;;;;;;2313350;54;20973;-70
2023/03/01 08:10:47;;;;;;;18.02;8.82;;;2.90;48.10;;;;;;2314161;54;21332;-71
2023/03/01 08:13:14;;;;;;;18.37;8.32;;;3.00;48.10;;;;;;2345561;53;21510;-72
2023/03/01 08:15:40;;;;;;;15.55;7.82;;;3.00;48.00;;;;;;2313581;54;21215;-71
2023/03/01 08:18:07;;;;;;;14.87;7.65;;;3.00;48.10;;;;;;2314065;54;21540;-71
2023/03/01 08:20:33;;;;;;;14.63;7.72;;;3.00;48.10;;;;;;2313175;54;20980;-72
2023/03/01 08:22:59;;;;;;;16.77;7.82;;;3.00;48.20;;;;;;2314341;54;21263;-71
2023/03/01 08:25:25;;;;;;;16.58;8.40;;;3.10;48.40;;;;;;2313279;54;20944;-71
2023/03/01 08:27:52;;;;;;;15.57;7.85;;;3.10;48.40;;;;;;2313801;54;21492;-71
2023/03/01 08:30:18;;;;;;;15.32;8.35;;;3.20;48.60;;;;;;2313369;54;21328;-72
2023/03/01 08:32:44;;;;;;;13.82;7.47;;;3.20;48.60;;;;;;2407591;53;21327;-70
2023/03/01 08:35:10;;;;;;;16.60;8.77;;;3.20;48.60;;;;;;2467010;53;21456;-72
2023/03/01 08:37:37;;;;;;;14.55;7.70;;;3.30;48.70;;;;;;2312868;54;20980;-71
2023/03/01 08:40:08;;;;;;;19.60;9.10;;;3.40;48.70;;;;;;2313676;54;21656;-69
2023/03/01 08:42:34;;;;;;;17.15;8.65;;;3.40;48.60;;;;;;2313520;54;21820;-73
2023/03/01 08:45:01;;;;;;;16.75;8.90;;;3.40;48.40;;;;;;2313966;54;21103;-71
2023/03/01 08:47:27;;;;;;;18.33;9.10;;;3.50;48.40;;;;;;2379694;53;21395;-71
2023/03/01 08:49:53;;;;;;;16.35;8.07;;;3.50;48.40;;;;;;2313829;54;21783;-72
2023/03/01 08:52:20;;;;;;;13.90;8.15;;;3.50;48.40;;;;;;2313368;54;21853;-72
2023/03/01 08:54:47;;;;;;;18.05;8.80;;;3.60;48.40;;;;;;2313661;54;20956;-71
2023/03/01 08:57:14;;;;;;;17.65;8.65;;;3.60;48.50;;;;;;2315254;53;21446;-72
2023/03/01 08:59:40;;;;;;;15.25;8.48;;;3.60;48.60;;;;;;2312094;54;20964;-73
2023/03/01 09:02:12;;;;;;;16.08;8.15;;;3.70;48.80;;;;;;2314087;54;21454;-70
2023/03/01 09:04:38;;;;;;;18.42;8.27;;;3.70;48.70;;;;;;2313602;54;21460;-73
2023/03/01 09:07:04;;;;;;;16.10;8.55;;;3.80;48.90;;;;;;2326638;53;21068;-72
2023/03/01 09:09:31;;;;;;;16.05;8.15;;;3.90;49.00;;;;;;2337574;53;21515;-73
2023/03/01 09:11:57;;;;;;;17.20;8.63;;;3.90;49.00;;;;;;2313699;54;21011;-72
2023/03/01 09:14:23;;;;;;;14.10;8.13;;;4.00;49.10;;;;;;2313987;54;21008;-70
2023/03/01 09:16:50;;;;;;;12.55;6.85;;;4.10;49.20;;;;;;2313381;54;20992;-72
2023/03/01 09:19:16;;;;;;;14.85;8.52;;;4.20;49.30;;;;;;2313829;54;21028;-70
2023/03/01 09:21:51;;;;;;;13.80;8.05;;;4.30;49.30;;;;;;2313717;54;20968;-71
2023/03/01 09:24:21;;;;;;;15.18;8.52;;;4.40;49.40;;;;;;2352412;53;21494;-73
2023/03/01 09:26:47;;;;;;;14.75;8.63;;;4.40;49.50;;;;;;2313820;54;21767;-74
2023/03/01 09:29:16;;;;;;;16.60;8.57;;;4.60;49.70;;;;;;2367205;53;21093;-71
2023/03/01 09:31:42;;;;;;;15.88;9.35;;;4.70;49.80;;;;;;2313591;54;21552;-73
2023/03/01 09:34:09;;;;;;;15.15;8.82;;;4.80;50.20;;;;;;2314167;54;21451;-74
2023/03/01 09:36:35;;;;;;;15.75;9.02;;;4.90;50.90;;;;;;2313973;54;20948;-71
2023/03/01 09:39:01;;;;;;;15.15;8.63;;;5.10;50.50;;;;;;2382889;53;20973;-71
2023/03/01 09:42:11;;;;;;;13.98;8.25;;;5.20;50.60;;;;;;2313976;54;21418;-71
2023/03/01 09:44:57;;;;;;;13.45;8.40;;;5.40;50.50;;;;;;2313313;54;20976;-73
2023/03/01 09:47:34;;;;;;;14.30;7.87;;;5.50;50.20;;;;;;2312754;53;21035;-75
2023/03/01 09:50:21;;;;;;;14.20;8.00;;;5.70;50.00;;;;;;2313867;54;21490;-71
2023/03/01 09:59:54;;;;;;;12.50;7.62;;;5.80;49.90;;;;;;2290239;54;20969;-73
2023/03/01 10:02:24;;;;;;;14.98;7.62;;;6.20;50.00;;;;;;2313347;54;21367;-75
2023/03/01 10:04:51;;;;;;;13.35;7.80;;;6.20;49.80;;;;;;2507696;53;20984;-73
2023/03/01 10:09:55;;;;;;;14.23;7.72;;;6.30;49.70;;;;;;2388759;53;20961;-71
2023/03/01 10:12:31;;;;;;;11.68;7.10;;;6.50;49.80;;;;;;2405581;53;21488;-72
2023/03/01 10:15:15;;;;;;;14.70;8.40;;;6.50;49.40;;;;;;2313951;54;20956;-72
2023/03/01 10:17:53;;;;;;;14.13;7.82;;;6.60;49.40;;;;;;2316512;54;20968;-73
2023/03/01 10:20:30;;;;;;;12.70;7.53;;;6.70;49.50;;;;;;2317300;54;20960;-73
2023/03/01 10:22:56;;;;;;;15.45;8.77;;;6.80;49.50;;;;;;2313932;54;21431;-74
2023/03/01 10:25:43;;;;;;;15.95;8.38;;;6.80;49.50;;;;;;2313487;54;21846;-73
2023/03/01 10:34:58;;;;;;;13.70;7.97;;;6.90;49.30;;;;;;2386575;53;20996;-75
2023/03/01 10:37:26;;;;;;;12.13;6.97;;;7.30;49.50;;;;;;2313251;54;20984;-72
2023/03/01 10:40:10;;;;;;;11.68;7.37;;;7.40;49.70;;;;;;2399434;53;20944;-73
2023/03/01 10:42:39;;;;;;;13.13;7.20;;;7.50;50.30;;;;;;2313123;53;21447;-73
2023/03/01 10:45:27;;;;;;;13.90;7.95;;;7.60;50.00;;;;;;2379644;53;21044;-72
2023/03/01 10:48:11;;;;;;;13.20;7.95;;;7.80;50.00;;;;;;2322651;53;21566;-73
2023/03/01 10:50:39;;;;;;;13.73;7.55;;;7.90;49.70;;;;;;2423023;53;21973;-73
2023/03/01 10:55:41;;;;;;;12.77;8.25;;;8.00;49.60;;;;;;2313693;54;21020;-72
2023/03/01 10:58:19;;;;;;;12.90;7.80;;;8.10;49.20;;;;;;2313553;54;21337;-72
2023/03/01 11:00:51;;;;;;;15.60;9.20;;;8.20;49.00;;;;;;2312955;54;21465;-74
2023/03/01 11:03:39;;;;;;;15.18;9.63;;;8.30;49.00;;;;;;2292103;54;21417;-72
2023/03/01 11:06:57;;;;;;;15.38;8.52;;;8.40;48.80;;;;;;2372516;53;20996;-74
2023/03/01 11:09:24;;;;;;;13.98;7.70;;;8.40;48.50;;;;;;2357487;53;21087;-72
2023/03/01 11:11:54;;;;;;;15.68;7.87;;;8.50;48.70;;;;;;2462082;53;20958;-73
2023/03/01 11:14:22;;;;;;;15.20;9.00;;;8.50;48.60;;;;;;2405882;53;21510;-74
2023/03/01 11:17:00;;;;;;;;;;;8.60;48.70;;;;;;2317188;54;21552;-74
2023/03/01 11:19:26;;;;;;;13.27;7.95;;;8.60;48.60;;;;;;2312978;54;20067;-72
2023/03/01 11:22:04;;;;;;;13.73;8.05;;;8.70;48.60;;;;;;2321435;54;21429;-72
2023/03/01 11:24:43;;;;;;;12.13;7.82;;;8.80;48.60;;;;;;2322279;54;20980;-73
2023/03/01 11:27:19;;;;;;;16.42;10.00;;;8.80;48.60;;;;;;2405700;53;21024;-73
2023/03/01 11:30:27;;;;;;;17.17;9.85;;;8.90;48.50;;;;;;2410946;53;20996;-72
2023/03/01 11:34:02;;;;;;;15.55;9.05;;;9.00;48.20;;;;;;2318151;54;20976;-72
2023/03/01 11:37:04;;;;;;;14.73;9.85;;;9.00;48.20;;;;;;2313640;54;21092;-72
2023/03/01 11:39:37;;;;;;;14.63;8.90;;;9.10;48.20;;;;;;2349887;53;20944;-73
2023/03/01 11:42:13;;;;;;;13.80;8.57;;;9.20;48.00;;;;;;2313767;54;21474;-76
2023/03/01 11:44:46;;;;;;;14.95;8.88;;;9.20;48.00;;;;;;2311907;54;20972;-73
2023/03/01 11:48:45;;;;;;;16.48;9.50;;;9.30;48.10;;;;;;2434915;53;21442;-76
2023/03/01 11:52:55;;;;;;;13.93;8.50;;;9.40;47.80;;;;;;2312685;54;21543;-73
2023/03/01 11:55:46;;;;;;;12.70;8.00;;;9.40;47.70;;;;;;2310125;54;21359;-73
2023/03/01 11:58:36;;;;;;;14.23;9.30;;;9.50;47.50;;;;;;2328134;53;21087;-72
2023/03/01 12:01:32;;;;;;;14.98;9.68;;;9.60;47.60;;;;;;2309962;54;20988;-74
2023/03/01 12:04:20;;;;;;;17.00;9.95;;;9.60;47.50;;;;;;2309868;54;21482;-74
2023/03/01 12:07:09;;;;;;;17.42;10.65;;;9.70;47.20;;;;;;2309772;54;20928;-73
2023/03/01 12:09:51;;;;;;;19.05;10.70;;;9.70;47.10;;;;;;2319805;53;21309;-75
2023/03/01 12:12:47;;;;;;;14.55;9.80;;;9.70;46.90;;;;;;2366121;53;21373;-73
2023/03/01 12:16:11;;;;;;;13.82;9.27;;;9.70;46.70;;;;;;2372891;53;21241;-73
2023/03/01 12:22:12;;;;;;;14.70;10.02;;;9.70;46.70;;;;;;2551586;53;21084;-73
2023/03/01 12:24:46;;;;;;;17.73;9.23;;;9.80;46.80;;;;;;2309772;54;21378;-74
2023/03/01 12:27:35;;;;;;;18.12;10.57;;;9.80;46.90;;;;;;2324464;53;21355;-74
2023/03/01 12:31:50;;;;;;;15.52;9.75;;;9.90;46.80;;;;;;2310772;54;22056;-74
2023/03/01 12:34:49;;;;;;;13.25;8.43;;;9.90;46.50;;;;;;2320315;53;21083;-75
2023/03/01 12:41:44;;;;;;;16.62;9.18;;;9.90;46.50;;;;;;2372768;53;21036;-73
2023/03/01 12:44:15;;;;;;;13.68;8.30;;;10.00;45.80;;;;;;2411830;53;21652;-74
2023/03/01 12:47:23;;;;;;;14.27;9.40;;;10.00;45.80;;;;;;2327189;53;21380;-74
2023/03/01 12:49:57;;;;;;;17.45;10.85;;;10.10;45.70;;;;;;2309165;54;20921;-74
2023/03/01 12:52:41;;;;;;;15.38;10.20;;;10.10;45.60;;;;;;2324983;53;20949;-74
2023/03/01 12:55:31;;;;;;;13.00;9.55;;;10.20;46.20;;;;;;2309093;54;21008;-74
2023/03/01 13:01:08;;;;;;;16.15;9.65;;;10.20;45.40;;;;;;2308607;53;21512;-74
2023/03/01 13:05:40;;;;;;;15.45;8.43;;;10.20;45.60;;;;;;2448110;53;21375;-74
2023/03/01 13:08:29;;;;;;;15.27;8.38;;;10.40;45.70;;;;;;2466825;53;21390;-74
2023/03/01 13:11:00;;;;;;;16.48;10.30;;;10.50;45.70;;;;;;2309155;53;21178;-74
2023/03/01 13:13:27;;;;;;;15.82;9.68;;;10.50;45.70;;;;;;2309238;54;21485;-74
2023/03/01 13:15:53;;;;;;;18.15;10.45;;;10.50;45.60;;;;;;2308617;54;21664;-75
2023/03/01 13:18:29;;;;;;;15.52;10.10;;;10.60;46.20;;;;;;2309485;53;21530;-75
2023/03/01 13:20:57;;;;;;;15.27;9.48;;;10.60;45.40;;;;;;2311996;53;21641;-74
2023/03/01 13:23:31;;;;;;;18.40;10.73;;;10.60;45.40;;;;;;2442271;53;20947;-74
2023/03/01 13:26:11;;;;;;;18.25;11.10;;;10.70;45.30;;;;;;2309110;54;20963;-74
2023/03/01 13:29:00;;;;;;;14.63;10.23;;;10.70;45.10;;;;;;2335624;53;21071;-74
2023/03/01 13:31:55;;;;;;;15.85;9.93;;;10.70;44.90;;;;;;2309019;54;21439;-74
2023/03/01 13:34:40;;;;;;;14.43;9.13;;;10.70;44.80;;;;;;2371055;53;21435;-73
2023/03/01 13:37:10;;;;;;;14.15;9.45;;;10.90;45.00;;;;;;2403978;53;21110;-74
2023/03/01 13:39:39;;;;;;;14.10;9.60;;;10.90;45.20;;;;;;2396334;53;20952;-74
2023/03/01 13:42:46;;;;;;;15.68;9.95;;;10.80;45.10;;;;;;2551885;53;22346;-75
2023/03/01 13:45:39;;;;;;;14.15;9.65;;;11.00;44.90;;;;;;2316935;54;21352;-74
2023/03/01 13:48:13;;;;;;;15.38;8.85;;;11.00;44.70;;;;;;2326506;53;20957;-74
2023/03/01 13:50:46;;;;;;;15.98;10.27;;;11.10;45.00;;;;;;2332496;54;20975;-74
2023/03/01 13:53:18;;;;;;;14.55;9.75;;;11.10;44.80;;;;;;2410606;53;20949;-73
2023/03/01 13:55:46;;;;;;;16.20;10.05;;;11.10;44.80;;;;;;2358345;53;20941;-75
2023/03/01 13:58:24;;;;;;;17.17;10.55;;;11.10;44.70;;;;;;2443067;53;20980;-75
2023/03/01 14:01:08;;;;;;;18.10;11.45;;;11.10;44.50;;;;;;2318095;54;21047;-74